sensor_id;sensor_type;location;lat;lon;timestamp;pressure;altitude;pressure_sealevel;temperature;humidity
81196;BME280;70671;43.888;-79.394;2023-07-29T00:02:21;98761.25;;;30.67;48.43
81196;BME280;70671;43.888;-79.394;2023-07-29T00:04:48;98761.56;;;30.71;47.72
81196;BME280;70671;43.888;-79.394;2023-07-29T00:07:13;98757.22;;;30.61;46.91
81196;BME280;70671;43.888;-79.394;2023-07-29T00:09:39;98756.91;;;30.57;46.71
81196;BME280;70671;43.888;-79.394;2023-07-29T00:12:06;98756.31;;;30.58;47.67
81196;BME280;70671;43.888;-79.394;2023-07-29T00:14:32;98746.81;;;30.54;48.58
81196;BME280;70671;43.888;-79.394;2023-07-29T00:16:58;98748.28;;;30.55;48.38
81196;BME280;70671;43.888;-79.394;2023-07-29T00:19:24;98750.78;;;30.41;48.54
81196;BME280;70671;43.888;-79.394;2023-07-29T00:21:50;98756.28;;;30.49;48.83
81196;BME280;70671;43.888;-79.394;2023-07-29T00:24:16;98746.88;;;30.37;48.82
81196;BME280;70671;43.888;-79.394;2023-07-29T00:26:42;98751.00;;;30.72;48.16
81196;BME280;70671;43.888;-79.394;2023-07-29T00:29:08;98742.63;;;30.45;48.85
81196;BME280;70671;43.888;-79.394;2023-07-29T00:31:33;98742.63;;;30.55;48.61
81196;BME280;70671;43.888;-79.394;2023-07-29T00:33:59;98741.09;;;30.35;49.03
81196;BME280;70671;43.888;-79.394;2023-07-29T00:36:25;98743.53;;;30.21;49.81
81196;BME280;70671;43.888;-79.394;2023-07-29T00:38:52;98730.44;;;30.16;50.03
81196;BME280;70671;43.888;-79.394;2023-07-29T00:41:21;98740.34;;;30.07;50.23
81196;BME280;70671;43.888;-79.394;2023-07-29T00:43:48;98731.88;;;30.07;50.02
81196;BME280;70671;43.888;-79.394;2023-07-29T00:46:15;98740.25;;;30.15;50.12
81196;BME280;70671;43.888;-79.394;2023-07-29T00:48:42;98749.38;;;30.06;50.78
81196;BME280;70671;43.888;-79.394;2023-07-29T00:51:08;98751.41;;;29.96;50.75
81196;BME280;70671;43.888;-79.394;2023-07-29T00:53:34;98743.97;;;29.91;50.81
81196;BME280;70671;43.888;-79.394;2023-07-29T00:56:00;98759.91;;;30.05;50.88
81196;BME280;70671;43.888;-79.394;2023-07-29T00:58:26;98763.75;;;29.74;52.20
81196;BME280;70671;43.888;-79.394;2023-07-29T01:00:53;98769.47;;;29.66;52.28
81196;BME280;70671;43.888;-79.394;2023-07-29T01:03:20;98772.94;;;29.57;53.08
81196;BME280;70671;43.888;-79.394;2023-07-29T01:08:37;98780.91;;;29.51;53.42
81196;BME280;70671;43.888;-79.394;2023-07-29T01:11:19;98787.53;;;29.29;53.55
81196;BME280;70671;43.888;-79.394;2023-07-29T01:14:10;98784.88;;;29.31;53.59
81196;BME280;70671;43.888;-79.394;2023-07-29T01:16:48;98789.34;;;29.17;54.64
81196;BME280;70671;43.888;-79.394;2023-07-29T01:22:07;98795.16;;;29.19;54.51
81196;BME280;70671;43.888;-79.394;2023-07-29T01:24:34;98788.16;;;29.03;55.33
81196;BME280;70671;43.888;-79.394;2023-07-29T01:27:00;98793.44;;;28.99;54.81
81196;BME280;70671;43.888;-79.394;2023-07-29T01:29:27;98786.31;;;28.98;55.32
81196;BME280;70671;43.888;-79.394;2023-07-29T01:31:56;98777.19;;;28.90;55.26
81196;BME280;70671;43.888;-79.394;2023-07-29T01:34:45;98781.16;;;28.87;55.41
81196;BME280;70671;43.888;-79.394;2023-07-29T01:37:16;98778.59;;;28.81;55.66
81196;BME280;70671;43.888;-79.394;2023-07-29T01:39:48;98784.03;;;28.79;55.74
81196;BME280;70671;43.888;-79.394;2023-07-29T01:42:15;98783.53;;;28.73;55.89
81196;BME280;70671;43.888;-79.394;2023-07-29T01:44:41;98780.13;;;28.75;56.84
81196;BME280;70671;43.888;-79.394;2023-07-29T01:47:08;98770.91;;;28.57;56.63
81196;BME280;70671;43.888;-79.394;2023-07-29T01:49:34;98765.16;;;28.47;56.92
81196;BME280;70671;43.888;-79.394;2023-07-29T01:52:00;98776.59;;;28.49;57.45
81196;BME280;70671;43.888;-79.394;2023-07-29T01:54:26;98787.50;;;28.45;57.21
81196;BME280;70671;43.888;-79.394;2023-07-29T01:56:52;98791.66;;;28.37;57.51
81196;BME280;70671;43.888;-79.394;2023-07-29T01:59:18;98792.84;;;28.26;57.85
81196;BME280;70671;43.888;-79.394;2023-07-29T02:01:44;98799.22;;;28.27;58.33
81196;BME280;70671;43.888;-79.394;2023-07-29T02:04:12;98797.44;;;28.14;58.86
81196;BME280;70671;43.888;-79.394;2023-07-29T02:06:38;98803.28;;;28.09;58.78
81196;BME280;70671;43.888;-79.394;2023-07-29T02:09:04;98804.81;;;28.02;59.58
81196;BME280;70671;43.888;-79.394;2023-07-29T02:11:30;98807.31;;;27.83;60.11
81196;BME280;70671;43.888;-79.394;2023-07-29T02:13:56;98812.53;;;27.87;60.14
81196;BME280;70671;43.888;-79.394;2023-07-29T02:16:23;98810.72;;;27.74;60.46
81196;BME280;70671;43.888;-79.394;2023-07-29T02:18:49;98819.34;;;27.76;60.16
81196;BME280;70671;43.888;-79.394;2023-07-29T02:21:16;98823.84;;;27.71;61.01
81196;BME280;70671;43.888;-79.394;2023-07-29T02:23:42;98823.84;;;27.64;61.69
81196;BME280;70671;43.888;-79.394;2023-07-29T02:26:08;98812.25;;;27.60;62.23
81196;BME280;70671;43.888;-79.394;2023-07-29T02:28:34;98818.63;;;27.60;62.76
81196;BME280;70671;43.888;-79.394;2023-07-29T02:31:22;98807.47;;;27.45;62.67
81196;BME280;70671;43.888;-79.394;2023-07-29T02:33:48;98825.19;;;27.63;63.27
81196;BME280;70671;43.888;-79.394;2023-07-29T02:36:15;98815.66;;;27.51;63.05
81196;BME280;70671;43.888;-79.394;2023-07-29T02:38:42;98812.69;;;27.49;63.79
81196;BME280;70671;43.888;-79.394;2023-07-29T02:41:09;98821.69;;;27.47;63.56
81196;BME280;70671;43.888;-79.394;2023-07-29T02:43:36;98810.09;;;27.36;63.50
81196;BME280;70671;43.888;-79.394;2023-07-29T02:46:02;98810.25;;;27.38;63.42
81196;BME280;70671;43.888;-79.394;2023-07-29T02:48:28;98793.06;;;27.34;63.57
81196;BME280;70671;43.888;-79.394;2023-07-29T02:50:55;98800.72;;;27.41;63.83
81196;BME280;70671;43.888;-79.394;2023-07-29T02:53:22;98801.66;;;27.36;63.40
81196;BME280;70671;43.888;-79.394;2023-07-29T02:55:49;98799.25;;;27.25;63.61
81196;BME280;70671;43.888;-79.394;2023-07-29T02:58:14;98807.09;;;27.26;63.36
81196;BME280;70671;43.888;-79.394;2023-07-29T03:00:41;98805.03;;;27.27;63.38
81196;BME280;70671;43.888;-79.394;2023-07-29T03:03:09;98806.31;;;27.33;63.38
81196;BME280;70671;43.888;-79.394;2023-07-29T03:05:35;98785.03;;;27.15;63.42
81196;BME280;70671;43.888;-79.394;2023-07-29T03:08:03;98795.28;;;27.28;63.65
81196;BME280;70671;43.888;-79.394;2023-07-29T03:10:29;98781.06;;;27.26;63.43
81196;BME280;70671;43.888;-79.394;2023-07-29T03:12:55;98783.50;;;27.29;62.97
81196;BME280;70671;43.888;-79.394;2023-07-29T03:15:25;98781.06;;;27.26;63.17
81196;BME280;70671;43.888;-79.394;2023-07-29T03:17:52;98777.72;;;27.20;63.15
81196;BME280;70671;43.888;-79.394;2023-07-29T03:20:19;98763.13;;;27.14;62.99
81196;BME280;70671;43.888;-79.394;2023-07-29T03:22:45;98772.88;;;27.05;63.47
81196;BME280;70671;43.888;-79.394;2023-07-29T03:25:11;98771.94;;;27.03;63.54
81196;BME280;70671;43.888;-79.394;2023-07-29T03:27:37;98765.25;;;26.98;63.95
81196;BME280;70671;43.888;-79.394;2023-07-29T03:30:04;98755.16;;;26.87;64.09
81196;BME280;70671;43.888;-79.394;2023-07-29T03:32:30;98759.25;;;26.86;64.21
81196;BME280;70671;43.888;-79.394;2023-07-29T03:34:56;98769.00;;;26.85;64.38
81196;BME280;70671;43.888;-79.394;2023-07-29T03:37:22;98766.19;;;26.78;64.88
81196;BME280;70671;43.888;-79.394;2023-07-29T03:39:48;98756.25;;;26.69;64.56
81196;BME280;70671;43.888;-79.394;2023-07-29T03:42:14;98752.34;;;26.65;64.24
81196;BME280;70671;43.888;-79.394;2023-07-29T03:44:40;98757.75;;;26.55;64.15
81196;BME280;70671;43.888;-79.394;2023-07-29T03:47:06;98748.22;;;26.43;64.21
81196;BME280;70671;43.888;-79.394;2023-07-29T03:49:32;98759.63;;;26.45;63.61
81196;BME280;70671;43.888;-79.394;2023-07-29T03:51:58;98759.63;;;26.45;63.96
81196;BME280;70671;43.888;-79.394;2023-07-29T03:54:24;98755.13;;;26.42;63.68
81196;BME280;70671;43.888;-79.394;2023-07-29T03:56:50;98757.56;;;26.38;63.24
81196;BME280;70671;43.888;-79.394;2023-07-29T03:59:17;98744.09;;;26.29;63.19
81196;BME280;70671;43.888;-79.394;2023-07-29T04:01:43;98749.88;;;26.31;62.82
81196;BME280;70671;43.888;-79.394;2023-07-29T04:04:09;98759.63;;;26.30;63.05
81196;BME280;70671;43.888;-79.394;2023-07-29T04:06:35;98753.44;;;26.24;62.86
81196;BME280;70671;43.888;-79.394;2023-07-29T04:09:01;98741.66;;;26.18;63.27
81196;BME280;70671;43.888;-79.394;2023-07-29T04:11:27;98751.75;;;26.21;62.90
81196;BME280;70671;43.888;-79.394;2023-07-29T04:13:53;98759.03;;;26.17;63.44
81196;BME280;70671;43.888;-79.394;2023-07-29T04:16:19;98737.72;;;26.13;63.31
81196;BME280;70671;43.888;-79.394;2023-07-29T04:18:45;98758.28;;;26.08;63.68
81196;BME280;70671;43.888;-79.394;2023-07-29T04:21:11;98767.75;;;26.05;63.84
81196;BME280;70671;43.888;-79.394;2023-07-29T04:23:37;98758.78;;;25.92;63.69
81196;BME280;70671;43.888;-79.394;2023-07-29T04:26:04;98761.97;;;25.96;63.75
81196;BME280;70671;43.888;-79.394;2023-07-29T04:28:30;98762.88;;;25.91;63.74
81196;BME280;70671;43.888;-79.394;2023-07-29T04:30:56;98763.25;;;25.87;64.36
81196;BME280;70671;43.888;-79.394;2023-07-29T04:33:22;98773.09;;;25.81;64.70
81196;BME280;70671;43.888;-79.394;2023-07-29T04:35:48;98769.16;;;25.69;64.70
81196;BME280;70671;43.888;-79.394;2023-07-29T04:38:14;98760.34;;;25.65;64.64
81196;BME280;70671;43.888;-79.394;2023-07-29T04:40:40;98770.25;;;25.66;65.44
81196;BME280;70671;43.888;-79.394;2023-07-29T04:43:06;98785.16;;;25.61;65.40
81196;BME280;70671;43.888;-79.394;2023-07-29T04:45:32;98788.84;;;25.48;65.82
81196;BME280;70671;43.888;-79.394;2023-07-29T04:47:58;98796.88;;;25.52;65.71
81196;BME280;70671;43.888;-79.394;2023-07-29T04:50:24;98791.81;;;25.43;66.23
81196;BME280;70671;43.888;-79.394;2023-07-29T04:52:50;98801.50;;;25.42;65.90
81196;BME280;70671;43.888;-79.394;2023-07-29T04:55:16;98799.78;;;25.39;66.44
81196;BME280;70671;43.888;-79.394;2023-07-29T04:57:42;98796.41;;;25.32;66.05
81196;BME280;70671;43.888;-79.394;2023-07-29T05:00:08;98778.63;;;25.22;66.69
81196;BME280;70671;43.888;-79.394;2023-07-29T05:02:35;98788.84;;;25.20;66.93
81196;BME280;70671;43.888;-79.394;2023-07-29T05:05:01;98785.59;;;25.08;66.66
81196;BME280;70671;43.888;-79.394;2023-07-29T05:07:27;98783.34;;;25.07;67.68
81196;BME280;70671;43.888;-79.394;2023-07-29T05:09:53;98775.88;;;25.02;67.90
81196;BME280;70671;43.888;-79.394;2023-07-29T05:12:19;98773.19;;;24.96;68.19
81196;BME280;70671;43.888;-79.394;2023-07-29T05:14:45;98753.94;;;24.85;68.45
81196;BME280;70671;43.888;-79.394;2023-07-29T05:17:11;98771.53;;;24.93;68.34
81196;BME280;70671;43.888;-79.394;2023-07-29T05:19:37;98776.34;;;24.93;68.22
81196;BME280;70671;43.888;-79.394;2023-07-29T05:22:03;98795.19;;;24.92;67.93
81196;BME280;70671;43.888;-79.394;2023-07-29T05:24:29;98787.69;;;24.87;68.47
81196;BME280;70671;43.888;-79.394;2023-07-29T05:26:55;98787.34;;;24.91;68.75
81196;BME280;70671;43.888;-79.394;2023-07-29T05:29:21;98783.66;;;24.96;68.60
81196;BME280;70671;43.888;-79.394;2023-07-29T05:31:47;98777.16;;;25.01;68.70
81196;BME280;70671;43.888;-79.394;2023-07-29T05:34:13;98770.69;;;25.06;68.19
81196;BME280;70671;43.888;-79.394;2023-07-29T05:36:39;98763.16;;;25.01;68.32
81196;BME280;70671;43.888;-79.394;2023-07-29T05:39:05;98768.81;;;25.08;67.80
81196;BME280;70671;43.888;-79.394;2023-07-29T05:41:31;98759.50;;;25.06;67.91
81196;BME280;70671;43.888;-79.394;2023-07-29T05:43:58;98772.16;;;25.07;68.08
81196;BME280;70671;43.888;-79.394;2023-07-29T05:46:24;98770.81;;;25.00;67.89
81196;BME280;70671;43.888;-79.394;2023-07-29T05:48:51;98753.94;;;25.13;67.99
81196;BME280;70671;43.888;-79.394;2023-07-29T05:51:16;98744.25;;;25.14;67.95
81196;BME280;70671;43.888;-79.394;2023-07-29T05:53:42;98758.94;;;25.07;68.17
81196;BME280;70671;43.888;-79.394;2023-07-29T05:56:08;98757.03;;;25.02;68.44
81196;BME280;70671;43.888;-79.394;2023-07-29T05:58:35;98764.31;;;25.05;68.35
81196;BME280;70671;43.888;-79.394;2023-07-29T06:01:01;98740.19;;;24.95;68.73
81196;BME280;70671;43.888;-79.394;2023-07-29T06:03:27;98733.34;;;25.03;68.62
81196;BME280;70671;43.888;-79.394;2023-07-29T06:05:54;98727.75;;;25.03;68.07
81196;BME280;70671;43.888;-79.394;2023-07-29T06:08:20;98742.84;;;25.00;68.36
81196;BME280;70671;43.888;-79.394;2023-07-29T06:10:46;98743.75;;;24.95;68.67
81196;BME280;70671;43.888;-79.394;2023-07-29T06:13:12;98751.44;;;25.02;68.25
81196;BME280;70671;43.888;-79.394;2023-07-29T06:15:44;98747.09;;;24.94;68.57
81196;BME280;70671;43.888;-79.394;2023-07-29T06:18:10;98747.44;;;24.90;68.77
81196;BME280;70671;43.888;-79.394;2023-07-29T06:20:36;98733.59;;;24.85;69.04
81196;BME280;70671;43.888;-79.394;2023-07-29T06:23:02;98732.94;;;24.92;68.73
81196;BME280;70671;43.888;-79.394;2023-07-29T06:25:28;98727.66;;;24.88;68.52
81196;BME280;70671;43.888;-79.394;2023-07-29T06:27:54;98734.38;;;24.85;68.17
81196;BME280;70671;43.888;-79.394;2023-07-29T06:30:20;98742.94;;;24.87;68.22
81196;BME280;70671;43.888;-79.394;2023-07-29T06:32:46;98744.03;;;24.84;68.27
81196;BME280;70671;43.888;-79.394;2023-07-29T06:35:12;98732.84;;;24.84;68.31
81196;BME280;70671;43.888;-79.394;2023-07-29T06:37:38;98733.22;;;24.81;68.63
81196;BME280;70671;43.888;-79.394;2023-07-29T06:40:04;98723.47;;;24.74;68.97
81196;BME280;70671;43.888;-79.394;2023-07-29T06:42:31;98715.75;;;24.67;69.20
81196;BME280;70671;43.888;-79.394;2023-07-29T06:44:57;98743.91;;;24.69;69.55
81196;BME280;70671;43.888;-79.394;2023-07-29T06:47:23;98735.66;;;24.64;69.44
81196;BME280;70671;43.888;-79.394;2023-07-29T06:49:48;98740.53;;;24.63;69.44
81196;BME280;70671;43.888;-79.394;2023-07-29T06:52:14;98719.19;;;24.52;69.22
81196;BME280;70671;43.888;-79.394;2023-07-29T06:54:40;98726.16;;;24.59;69.44
81196;BME280;70671;43.888;-79.394;2023-07-29T06:57:06;98715.44;;;24.50;69.76
81196;BME280;70671;43.888;-79.394;2023-07-29T06:59:32;98708.38;;;24.49;69.88
81196;BME280;70671;43.888;-79.394;2023-07-29T07:01:58;98719.03;;;24.58;70.11
81196;BME280;70671;43.888;-79.394;2023-07-29T07:04:25;98709.03;;;24.42;70.92
81196;BME280;70671;43.888;-79.394;2023-07-29T07:06:51;98722.81;;;24.40;70.71
81196;BME280;70671;43.888;-79.394;2023-07-29T07:09:17;98724.59;;;24.30;70.69
81196;BME280;70671;43.888;-79.394;2023-07-29T07:11:43;98717.50;;;24.29;70.33
81196;BME280;70671;43.888;-79.394;2023-07-29T07:14:09;98729.97;;;24.28;70.88
81196;BME280;70671;43.888;-79.394;2023-07-29T07:16:42;98728.88;;;24.31;70.71
81196;BME280;70671;43.888;-79.394;2023-07-29T07:19:08;98734.47;;;24.31;70.62
81196;BME280;70671;43.888;-79.394;2023-07-29T07:21:34;98722.88;;;24.27;70.56
81196;BME280;70671;43.888;-79.394;2023-07-29T07:24:00;98731.19;;;24.40;70.40
81196;BME280;70671;43.888;-79.394;2023-07-29T07:26:26;98726.16;;;24.38;70.52
81196;BME280;70671;43.888;-79.394;2023-07-29T07:28:52;98714.50;;;24.27;70.78
81196;BME280;70671;43.888;-79.394;2023-07-29T07:31:18;98722.69;;;24.25;71.21
81196;BME280;70671;43.888;-79.394;2023-07-29T07:33:44;98729.63;;;24.11;71.71
81196;BME280;70671;43.888;-79.394;2023-07-29T07:36:10;98710.13;;;23.98;72.13
81196;BME280;70671;43.888;-79.394;2023-07-29T07:38:36;98725.47;;;24.04;71.71
81196;BME280;70671;43.888;-79.394;2023-07-29T07:41:02;98724.50;;;24.02;71.52
81196;BME280;70671;43.888;-79.394;2023-07-29T07:43:28;98725.66;;;24.06;71.13
81196;BME280;70671;43.888;-79.394;2023-07-29T07:45:58;98711.69;;;24.06;70.77
81196;BME280;70671;43.888;-79.394;2023-07-29T07:48:25;98704.06;;;24.07;71.03
81196;BME280;70671;43.888;-79.394;2023-07-29T07:50:50;98648.59;;;23.69;71.24
81196;BME280;70671;43.888;-79.394;2023-07-29T07:53:16;98690.56;;;23.98;71.15
81196;BME280;70671;43.888;-79.394;2023-07-29T07:55:42;98691.84;;;23.97;70.87
81196;BME280;70671;43.888;-79.394;2023-07-29T07:58:08;98671.34;;;23.94;70.97
81196;BME280;70671;43.888;-79.394;2023-07-29T08:00:34;98655.28;;;23.87;71.14
81196;BME280;70671;43.888;-79.394;2023-07-29T08:03:00;98660.97;;;23.82;71.60
81196;BME280;70671;43.888;-79.394;2023-07-29T08:05:26;98645.78;;;23.69;71.37
81196;BME280;70671;43.888;-79.394;2023-07-29T08:07:52;98652.06;;;23.62;71.40
81196;BME280;70671;43.888;-79.394;2023-07-29T08:10:18;98671.06;;;23.64;71.81
81196;BME280;70671;43.888;-79.394;2023-07-29T08:12:46;98652.31;;;23.51;72.09
81196;BME280;70671;43.888;-79.394;2023-07-29T08:15:12;98658.22;;;23.48;72.16
81196;BME280;70671;43.888;-79.394;2023-07-29T08:17:40;98675.31;;;23.44;72.79
81196;BME280;70671;43.888;-79.394;2023-07-29T08:20:07;98666.19;;;23.31;72.57
81196;BME280;70671;43.888;-79.394;2023-07-29T08:22:37;98681.97;;;23.28;72.87
81196;BME280;70671;43.888;-79.394;2023-07-29T08:25:03;98686.25;;;23.29;73.03
81196;BME280;70671;43.888;-79.394;2023-07-29T08:27:29;98676.84;;;23.19;73.31
81196;BME280;70671;43.888;-79.394;2023-07-29T08:29:55;98678.25;;;23.13;73.32
81196;BME280;70671;43.888;-79.394;2023-07-29T08:32:23;98688.84;;;23.14;73.56
81196;BME280;70671;43.888;-79.394;2023-07-29T08:34:51;98679.75;;;23.14;73.53
81196;BME280;70671;43.888;-79.394;2023-07-29T08:37:17;98667.41;;;23.09;73.58
81196;BME280;70671;43.888;-79.394;2023-07-29T08:39:45;98657.34;;;23.06;73.51
81196;BME280;70671;43.888;-79.394;2023-07-29T08:42:11;98646.38;;;23.08;73.25
81196;BME280;70671;43.888;-79.394;2023-07-29T08:44:42;98658.50;;;23.11;73.69
81196;BME280;70671;43.888;-79.394;2023-07-29T08:47:10;98638.03;;;23.08;73.95
81196;BME280;70671;43.888;-79.394;2023-07-29T08:49:41;98630.63;;;23.11;73.76
81196;BME280;70671;43.888;-79.394;2023-07-29T08:52:09;98607.81;;;22.99;73.69
81196;BME280;70671;43.888;-79.394;2023-07-29T08:54:36;98630.06;;;23.12;73.25
81196;BME280;70671;43.888;-79.394;2023-07-29T08:57:02;98631.72;;;23.08;73.95
81196;BME280;70671;43.888;-79.394;2023-07-29T08:59:29;98634.81;;;23.04;73.63
81196;BME280;70671;43.888;-79.394;2023-07-29T09:01:56;98645.31;;;23.11;73.24
81196;BME280;70671;43.888;-79.394;2023-07-29T09:04:23;98658.09;;;23.07;73.64
81196;BME280;70671;43.888;-79.394;2023-07-29T09:06:51;98657.03;;;23.10;73.79
81196;BME280;70671;43.888;-79.394;2023-07-29T09:09:20;98660.34;;;23.08;74.13
81196;BME280;70671;43.888;-79.394;2023-07-29T09:11:47;98636.97;;;22.98;74.09
81196;BME280;70671;43.888;-79.394;2023-07-29T09:14:13;98648.88;;;22.99;74.17
81196;BME280;70671;43.888;-79.394;2023-07-29T09:16:42;98651.88;;;23.01;74.00
81196;BME280;70671;43.888;-79.394;2023-07-29T09:19:08;98641.91;;;22.92;74.49
81196;BME280;70671;43.888;-79.394;2023-07-29T09:21:39;98636.97;;;22.98;74.11
81196;BME280;70671;43.888;-79.394;2023-07-29T09:24:06;98629.28;;;22.91;74.67
81196;BME280;70671;43.888;-79.394;2023-07-29T09:26:33;98616.59;;;22.90;73.89
81196;BME280;70671;43.888;-79.394;2023-07-29T09:29:01;98627.53;;;23.01;73.97
81196;BME280;70671;43.888;-79.394;2023-07-29T09:31:29;98623.03;;;22.98;74.23
81196;BME280;70671;43.888;-79.394;2023-07-29T09:34:01;98625.59;;;22.96;74.41
81196;BME280;70671;43.888;-79.394;2023-07-29T09:36:27;98621.13;;;22.93;74.66
81196;BME280;70671;43.888;-79.394;2023-07-29T09:38:56;98631.31;;;22.90;74.78
81196;BME280;70671;43.888;-79.394;2023-07-29T09:41:24;98639.03;;;22.98;75.33
81196;BME280;70671;43.888;-79.394;2023-07-29T09:43:56;98627.13;;;22.97;75.16
81196;BME280;70671;43.888;-79.394;2023-07-29T09:46:25;98628.19;;;22.94;75.97
81196;BME280;70671;43.888;-79.394;2023-07-29T09:48:54;98631.81;;;23.02;75.76
81196;BME280;70671;43.888;-79.394;2023-07-29T09:51:24;98637.59;;;23.04;75.79
81196;BME280;70671;43.888;-79.394;2023-07-29T09:53:51;98647.47;;;23.05;75.69
81196;BME280;70671;43.888;-79.394;2023-07-29T09:56:18;98636.53;;;23.07;75.74
81196;BME280;70671;43.888;-79.394;2023-07-29T09:58:50;98649.59;;;23.12;75.70
81196;BME280;70671;43.888;-79.394;2023-07-29T10:01:17;98658.38;;;23.16;75.68
81196;BME280;70671;43.888;-79.394;2023-07-29T10:03:45;98615.53;;;22.93;75.49
81196;BME280;70671;43.888;-79.394;2023-07-29T10:06:13;98656.78;;;23.21;75.21
81196;BME280;70671;43.888;-79.394;2023-07-29T10:08:42;98655.16;;;23.25;74.92
81196;BME280;70671;43.888;-79.394;2023-07-29T10:11:10;98656.47;;;23.24;75.18
81196;BME280;70671;43.888;-79.394;2023-07-29T10:13:37;98660.94;;;23.27;75.30
81196;BME280;70671;43.888;-79.394;2023-07-29T10:16:04;98651.75;;;23.32;75.24
81196;BME280;70671;43.888;-79.394;2023-07-29T10:18:31;98644.00;;;23.38;74.89
81196;BME280;70671;43.888;-79.394;2023-07-29T10:21:00;98628.88;;;23.34;74.70
81196;BME280;70671;43.888;-79.394;2023-07-29T10:23:27;98634.41;;;23.47;74.43
81196;BME280;70671;43.888;-79.394;2023-07-29T10:26:03;98613.94;;;23.44;74.71
81196;BME280;70671;43.888;-79.394;2023-07-29T10:28:30;98613.25;;;23.51;74.38
81196;BME280;70671;43.888;-79.394;2023-07-29T10:30:57;98613.44;;;23.53;74.54
81196;BME280;70671;43.888;-79.394;2023-07-29T10:33:24;98595.13;;;23.45;74.65
81196;BME280;70671;43.888;-79.394;2023-07-29T10:35:50;98617.41;;;23.58;74.46
81196;BME280;70671;43.888;-79.394;2023-07-29T10:38:17;98614.88;;;23.67;74.42
81196;BME280;70671;43.888;-79.394;2023-07-29T10:40:49;98599.25;;;23.64;74.04
81196;BME280;70671;43.888;-79.394;2023-07-29T10:43:36;98601.53;;;23.73;74.17
81196;BME280;70671;43.888;-79.394;2023-07-29T10:48:54;98609.44;;;23.83;73.74
81196;BME280;70671;43.888;-79.394;2023-07-29T10:51:37;98589.72;;;23.81;73.86
81196;BME280;70671;43.888;-79.394;2023-07-29T10:54:10;98604.47;;;23.89;73.60
81196;BME280;70671;43.888;-79.394;2023-07-29T10:56:42;98587.53;;;23.87;73.96
81196;BME280;70671;43.888;-79.394;2023-07-29T11:01:39;98587.94;;;23.91;73.59
81196;BME280;70671;43.888;-79.394;2023-07-29T11:09:51;98611.03;;;24.12;73.04
81196;BME280;70671;43.888;-79.394;2023-07-29T11:12:37;98613.06;;;24.11;72.98
81196;BME280;70671;43.888;-79.394;2023-07-29T11:15:11;98602.66;;;24.12;73.22
81196;BME280;70671;43.888;-79.394;2023-07-29T11:17:55;98608.09;;;24.17;72.82
81196;BME280;70671;43.888;-79.394;2023-07-29T11:20:26;98603.81;;;24.16;72.69
81196;BME280;70671;43.888;-79.394;2023-07-29T11:22:57;98612.03;;;24.22;72.56
81196;BME280;70671;43.888;-79.394;2023-07-29T11:25:25;98629.19;;;24.26;72.66
81196;BME280;70671;43.888;-79.394;2023-07-29T11:27:53;98629.94;;;24.26;71.98
81196;BME280;70671;43.888;-79.394;2023-07-29T11:30:19;98621.69;;;24.21;72.56
81196;BME280;70671;43.888;-79.394;2023-07-29T11:32:46;98622.31;;;24.27;72.98
81196;BME280;70671;43.888;-79.394;2023-07-29T11:35:17;98627.00;;;24.32;72.63
81196;BME280;70671;43.888;-79.394;2023-07-29T11:37:48;98613.78;;;24.32;72.43
81196;BME280;70671;43.888;-79.394;2023-07-29T11:40:18;98617.91;;;24.39;71.92
81196;BME280;70671;43.888;-79.394;2023-07-29T11:42:50;98600.91;;;24.29;72.08
81196;BME280;70671;43.888;-79.394;2023-07-29T11:45:17;98626.09;;;24.37;72.29
81196;BME280;70671;43.888;-79.394;2023-07-29T11:47:43;98627.81;;;24.40;71.96
81196;BME280;70671;43.888;-79.394;2023-07-29T11:50:11;98621.41;;;24.32;71.90
81196;BME280;70671;43.888;-79.394;2023-07-29T11:52:45;98636.00;;;24.38;71.95
81196;BME280;70671;43.888;-79.394;2023-07-29T11:55:13;98615.06;;;24.31;71.98
81196;BME280;70671;43.888;-79.394;2023-07-29T11:57:39;98629.28;;;24.41;71.72
81196;BME280;70671;43.888;-79.394;2023-07-29T12:00:10;98626.28;;;24.39;72.06
81196;BME280;70671;43.888;-79.394;2023-07-29T12:02:39;98633.00;;;24.36;71.56
81196;BME280;70671;43.888;-79.394;2023-07-29T12:05:07;98629.66;;;24.37;71.39
81196;BME280;70671;43.888;-79.394;2023-07-29T12:07:34;98619.50;;;24.27;71.74
81196;BME280;70671;43.888;-79.394;2023-07-29T12:10:02;98617.22;;;24.18;72.38
81196;BME280;70671;43.888;-79.394;2023-07-29T12:12:29;98619.81;;;24.16;73.12
81196;BME280;70671;43.888;-79.394;2023-07-29T12:14:55;98626.44;;;24.05;73.33
81196;BME280;70671;43.888;-79.394;2023-07-29T12:17:21;98640.44;;;23.92;74.62
81196;BME280;70671;43.888;-79.394;2023-07-29T12:19:47;98635.84;;;23.82;74.52
81196;BME280;70671;43.888;-79.394;2023-07-29T12:22:19;98633.09;;;23.61;75.94
81196;BME280;70671;43.888;-79.394;2023-07-29T12:24:45;98641.25;;;23.59;76.08
81196;BME280;70671;43.888;-79.394;2023-07-29T12:27:24;98640.94;;;23.49;75.90
81196;BME280;70671;43.888;-79.394;2023-07-29T12:30:03;98628.53;;;23.37;76.30
81196;BME280;70671;43.888;-79.394;2023-07-29T12:32:29;98610.72;;;23.27;77.07
81196;BME280;70671;43.888;-79.394;2023-07-29T12:34:56;98630.47;;;23.29;77.99
81196;BME280;70671;43.888;-79.394;2023-07-29T12:37:31;98627.25;;;23.25;78.51
81196;BME280;70671;43.888;-79.394;2023-07-29T12:39:59;98625.56;;;23.22;78.67
81196;BME280;70671;43.888;-79.394;2023-07-29T12:42:25;98619.56;;;23.18;78.71
81196;BME280;70671;43.888;-79.394;2023-07-29T12:44:53;98614.31;;;23.15;79.10
81196;BME280;70671;43.888;-79.394;2023-07-29T12:47:19;98615.91;;;23.10;78.99
81196;BME280;70671;43.888;-79.394;2023-07-29T12:49:45;98618.72;;;23.10;79.44
81196;BME280;70671;43.888;-79.394;2023-07-29T12:52:11;98611.22;;;23.05;79.39
81196;BME280;70671;43.888;-79.394;2023-07-29T12:54:38;98616.47;;;23.09;79.89
81196;BME280;70671;43.888;-79.394;2023-07-29T12:57:06;98617.66;;;23.13;79.27
81196;BME280;70671;43.888;-79.394;2023-07-29T12:59:32;98607.97;;;23.14;79.85